Terminal Aerodrome Forecast
Issued by NWS

Home | Current Version | Previous Version | Text Only | Print | Product List | Glossary On
Versions: 1 2 3 4 5 6 7 8 9 10 11 12 13 14 15 16 17 18 19 20 21 22 23 24 25 26 27 28 29 30 31
000
FTUS46 KLOX 242323
TAFLAX
TAF
KLAX 242323Z 2500/2606 27014KT P6SM SCT040 SCT070
     FM250400 26008KT P6SM SCT015
     FM250600 26006KT P6SM BKN020
     FM251000 VRB03KT P6SM OVC025
     FM251300 15007KT P6SM BKN025
     FM251800 25006KT P6SM SCT030
     FM252100 25012KT P6SM SCT035
     FM260400 25008KT P6SM SCT017=

USA.gov is the U.S. government's official web portal to all federal, state and local government web resources and services.